sensor_id;sensor_type;location;lat;lon;timestamp;P1;durP1;ratioP1;P2;durP2;ratioP2
53801;SDS011;39709;53.334;6.534;2023-01-16T00:02:02;2.08;;;0.50;;
53801;SDS011;39709;53.334;6.534;2023-01-16T00:04:28;9.80;;;3.93;;
53801;SDS011;39709;53.334;6.534;2023-01-16T00:06:54;4.40;;;1.50;;
53801;SDS011;39709;53.334;6.534;2023-01-16T00:09:20;11.95;;;3.42;;
53801;SDS011;39709;53.334;6.534;2023-01-16T00:11:46;6.97;;;2.40;;
53801;SDS011;39709;53.334;6.534;2023-01-16T00:14:12;4.83;;;1.60;;
53801;SDS011;39709;53.334;6.534;2023-01-16T00:16:38;8.98;;;3.13;;
53801;SDS011;39709;53.334;6.534;2023-01-16T00:19:03;8.07;;;2.13;;
53801;SDS011;39709;53.334;6.534;2023-01-16T00:21:29;4.05;;;1.02;;
53801;SDS011;39709;53.334;6.534;2023-01-16T00:23:56;4.40;;;1.38;;
53801;SDS011;39709;53.334;6.534;2023-01-16T00:26:23;4.47;;;1.50;;
53801;SDS011;39709;53.334;6.534;2023-01-16T00:28:50;4.93;;;1.55;;
53801;SDS011;39709;53.334;6.534;2023-01-16T00:31:16;5.32;;;1.30;;
53801;SDS011;39709;53.334;6.534;2023-01-16T00:33:42;8.90;;;2.80;;
53801;SDS011;39709;53.334;6.534;2023-01-16T00:36:08;10.20;;;2.38;;
53801;SDS011;39709;53.334;6.534;2023-01-16T00:38:34;6.43;;;1.50;;
53801;SDS011;39709;53.334;6.534;2023-01-16T00:41:01;4.45;;;1.23;;
53801;SDS011;39709;53.334;6.534;2023-01-16T00:43:26;7.63;;;2.63;;
53801;SDS011;39709;53.334;6.534;2023-01-16T00:45:52;10.40;;;2.67;;
53801;SDS011;39709;53.334;6.534;2023-01-16T00:48:18;10.18;;;3.05;;
53801;SDS011;39709;53.334;6.534;2023-01-16T00:50:43;3.70;;;0.80;;
53801;SDS011;39709;53.334;6.534;2023-01-16T00:53:09;3.65;;;0.70;;
53801;SDS011;39709;53.334;6.534;2023-01-16T00:55:35;7.83;;;2.87;;
53801;SDS011;39709;53.334;6.534;2023-01-16T00:58:04;6.93;;;1.55;;
53801;SDS011;39709;53.334;6.534;2023-01-16T01:00:30;3.00;;;0.93;;
53801;SDS011;39709;53.334;6.534;2023-01-16T01:02:57;4.87;;;1.13;;
53801;SDS011;39709;53.334;6.534;2023-01-16T01:05:23;9.75;;;2.97;;
53801;SDS011;39709;53.334;6.534;2023-01-16T01:07:49;11.73;;;3.55;;
53801;SDS011;39709;53.334;6.534;2023-01-16T01:10:15;10.60;;;3.30;;
53801;SDS011;39709;53.334;6.534;2023-01-16T01:12:40;2.38;;;0.50;;
53801;SDS011;39709;53.334;6.534;2023-01-16T01:15:06;3.40;;;0.83;;
53801;SDS011;39709;53.334;6.534;2023-01-16T01:17:32;6.88;;;2.38;;
53801;SDS011;39709;53.334;6.534;2023-01-16T01:19:58;3.93;;;1.27;;
53801;SDS011;39709;53.334;6.534;2023-01-16T01:22:23;6.07;;;1.23;;
53801;SDS011;39709;53.334;6.534;2023-01-16T01:24:51;10.75;;;2.78;;
53801;SDS011;39709;53.334;6.534;2023-01-16T01:27:16;4.83;;;1.33;;
53801;SDS011;39709;53.334;6.534;2023-01-16T01:29:42;9.83;;;3.40;;
53801;SDS011;39709;53.334;6.534;2023-01-16T01:32:08;4.83;;;0.80;;
53801;SDS011;39709;53.334;6.534;2023-01-16T01:34:34;7.97;;;2.58;;
53801;SDS011;39709;53.334;6.534;2023-01-16T01:37:00;2.10;;;0.43;;
53801;SDS011;39709;53.334;6.534;2023-01-16T01:39:26;5.07;;;1.30;;
53801;SDS011;39709;53.334;6.534;2023-01-16T01:41:52;2.70;;;0.33;;
53801;SDS011;39709;53.334;6.534;2023-01-16T01:44:45;10.57;;;2.90;;
53801;SDS011;39709;53.334;6.534;2023-01-16T01:47:36;6.30;;;1.73;;
53801;SDS011;39709;53.334;6.534;2023-01-16T01:50:17;6.07;;;1.20;;
53801;SDS011;39709;53.334;6.534;2023-01-16T01:52:50;4.32;;;1.05;;
53801;SDS011;39709;53.334;6.534;2023-01-16T01:55:17;7.07;;;1.77;;
53801;SDS011;39709;53.334;6.534;2023-01-16T01:57:47;7.65;;;2.50;;
53801;SDS011;39709;53.334;6.534;2023-01-16T02:00:20;5.13;;;1.23;;
53801;SDS011;39709;53.334;6.534;2023-01-16T02:02:51;1.90;;;0.40;;
53801;SDS011;39709;53.334;6.534;2023-01-16T02:05:25;7.05;;;1.85;;
53801;SDS011;39709;53.334;6.534;2023-01-16T02:07:54;6.67;;;1.80;;
53801;SDS011;39709;53.334;6.534;2023-01-16T02:10:43;6.80;;;1.10;;
53801;SDS011;39709;53.334;6.534;2023-01-16T02:13:10;10.30;;;2.15;;
53801;SDS011;39709;53.334;6.534;2023-01-16T02:15:36;9.30;;;2.28;;
53801;SDS011;39709;53.334;6.534;2023-01-16T02:18:23;11.13;;;2.33;;
53801;SDS011;39709;53.334;6.534;2023-01-16T02:21:12;4.27;;;0.83;;
53801;SDS011;39709;53.334;6.534;2023-01-16T02:27:28;6.00;;;1.23;;
53801;SDS011;39709;53.334;6.534;2023-01-16T02:30:34;5.38;;;1.25;;
53801;SDS011;39709;53.334;6.534;2023-01-16T02:44:14;7.80;;;1.92;;
53801;SDS011;39709;53.334;6.534;2023-01-16T02:49:42;6.20;;;1.83;;
53801;SDS011;39709;53.334;6.534;2023-01-16T02:55:01;8.15;;;1.90;;
53801;SDS011;39709;53.334;6.534;2023-01-16T02:57:43;8.02;;;1.42;;
53801;SDS011;39709;53.334;6.534;2023-01-16T03:00:11;9.77;;;1.70;;
53801;SDS011;39709;53.334;6.534;2023-01-16T03:02:41;7.50;;;2.07;;
53801;SDS011;39709;53.334;6.534;2023-01-16T03:05:08;8.88;;;2.30;;
53801;SDS011;39709;53.334;6.534;2023-01-16T03:30:10;9.10;;;1.97;;
53801;SDS011;39709;53.334;6.534;2023-01-16T03:32:50;13.35;;;2.47;;
53801;SDS011;39709;53.334;6.534;2023-01-16T03:35:22;7.18;;;2.15;;
53801;SDS011;39709;53.334;6.534;2023-01-16T03:37:55;7.50;;;1.77;;
53801;SDS011;39709;53.334;6.534;2023-01-16T03:40:26;7.53;;;2.08;;
53801;SDS011;39709;53.334;6.534;2023-01-16T03:42:57;6.20;;;2.17;;
53801;SDS011;39709;53.334;6.534;2023-01-16T03:48:43;8.10;;;1.83;;
53801;SDS011;39709;53.334;6.534;2023-01-16T03:51:15;6.55;;;1.65;;
53801;SDS011;39709;53.334;6.534;2023-01-16T03:54:13;10.32;;;1.88;;
53801;SDS011;39709;53.334;6.534;2023-01-16T03:56:52;7.03;;;2.27;;
53801;SDS011;39709;53.334;6.534;2023-01-16T03:59:38;6.50;;;2.22;;
53801;SDS011;39709;53.334;6.534;2023-01-16T04:02:11;7.03;;;1.83;;
53801;SDS011;39709;53.334;6.534;2023-01-16T04:05:03;9.02;;;2.40;;
53801;SDS011;39709;53.334;6.534;2023-01-16T04:10:24;9.53;;;2.03;;
53801;SDS011;39709;53.334;6.534;2023-01-16T04:12:56;8.57;;;2.00;;
53801;SDS011;39709;53.334;6.534;2023-01-16T04:15:25;3.30;;;0.75;;
53801;SDS011;39709;53.334;6.534;2023-01-16T04:17:54;5.55;;;1.73;;
53801;SDS011;39709;53.334;6.534;2023-01-16T04:20:20;1.58;;;0.20;;
53801;SDS011;39709;53.334;6.534;2023-01-16T04:22:48;2.13;;;0.50;;
53801;SDS011;39709;53.334;6.534;2023-01-16T04:25:15;4.90;;;1.55;;
53801;SDS011;39709;53.334;6.534;2023-01-16T04:27:42;7.15;;;2.20;;
53801;SDS011;39709;53.334;6.534;2023-01-16T04:30:08;0.77;;;0.20;;
53801;SDS011;39709;53.334;6.534;2023-01-16T04:32:35;5.30;;;1.98;;
53801;SDS011;39709;53.334;6.534;2023-01-16T04:35:01;5.90;;;1.58;;
53801;SDS011;39709;53.334;6.534;2023-01-16T04:37:27;6.20;;;2.30;;
53801;SDS011;39709;53.334;6.534;2023-01-16T04:39:52;7.47;;;1.98;;
53801;SDS011;39709;53.334;6.534;2023-01-16T04:42:18;5.60;;;1.70;;
53801;SDS011;39709;53.334;6.534;2023-01-16T04:44:44;6.75;;;1.70;;
53801;SDS011;39709;53.334;6.534;2023-01-16T04:47:10;7.03;;;1.93;;
53801;SDS011;39709;53.334;6.534;2023-01-16T04:49:36;6.18;;;1.00;;
53801;SDS011;39709;53.334;6.534;2023-01-16T04:52:01;9.18;;;2.13;;
53801;SDS011;39709;53.334;6.534;2023-01-16T04:54:27;9.10;;;2.50;;
53801;SDS011;39709;53.334;6.534;2023-01-16T04:56:53;10.05;;;1.52;;
53801;SDS011;39709;53.334;6.534;2023-01-16T04:59:19;7.93;;;2.10;;
53801;SDS011;39709;53.334;6.534;2023-01-16T05:01:45;9.20;;;3.03;;
53801;SDS011;39709;53.334;6.534;2023-01-16T05:04:11;7.10;;;2.33;;
53801;SDS011;39709;53.334;6.534;2023-01-16T05:06:38;8.17;;;2.30;;
53801;SDS011;39709;53.334;6.534;2023-01-16T05:09:05;7.85;;;3.10;;
53801;SDS011;39709;53.334;6.534;2023-01-16T05:11:31;9.60;;;2.90;;
53801;SDS011;39709;53.334;6.534;2023-01-16T05:13:58;7.80;;;2.40;;
53801;SDS011;39709;53.334;6.534;2023-01-16T05:16:24;9.70;;;3.05;;
53801;SDS011;39709;53.334;6.534;2023-01-16T05:18:49;13.82;;;2.92;;
53801;SDS011;39709;53.334;6.534;2023-01-16T05:21:15;9.03;;;2.87;;
53801;SDS011;39709;53.334;6.534;2023-01-16T05:23:41;11.10;;;3.47;;
53801;SDS011;39709;53.334;6.534;2023-01-16T05:26:07;12.20;;;3.90;;
53801;SDS011;39709;53.334;6.534;2023-01-16T05:28:33;13.77;;;4.47;;
53801;SDS011;39709;53.334;6.534;2023-01-16T05:30:59;14.18;;;4.30;;
53801;SDS011;39709;53.334;6.534;2023-01-16T05:33:25;14.40;;;4.72;;
53801;SDS011;39709;53.334;6.534;2023-01-16T05:35:51;10.77;;;3.57;;
53801;SDS011;39709;53.334;6.534;2023-01-16T05:38:18;13.18;;;4.47;;
53801;SDS011;39709;53.334;6.534;2023-01-16T05:40:44;11.80;;;4.43;;
53801;SDS011;39709;53.334;6.534;2023-01-16T05:43:11;16.10;;;5.05;;
53801;SDS011;39709;53.334;6.534;2023-01-16T05:45:36;13.13;;;5.17;;
53801;SDS011;39709;53.334;6.534;2023-01-16T05:48:02;11.88;;;5.10;;
53801;SDS011;39709;53.334;6.534;2023-01-16T05:50:28;14.33;;;5.50;;
53801;SDS011;39709;53.334;6.534;2023-01-16T05:52:54;12.40;;;5.10;;
53801;SDS011;39709;53.334;6.534;2023-01-16T05:55:20;11.82;;;5.30;;
53801;SDS011;39709;53.334;6.534;2023-01-16T05:57:46;17.27;;;5.13;;
53801;SDS011;39709;53.334;6.534;2023-01-16T06:00:12;12.17;;;4.33;;
53801;SDS011;39709;53.334;6.534;2023-01-16T06:02:38;13.00;;;4.90;;
53801;SDS011;39709;53.334;6.534;2023-01-16T06:05:04;11.07;;;4.00;;
53801;SDS011;39709;53.334;6.534;2023-01-16T06:07:30;13.35;;;5.63;;
53801;SDS011;39709;53.334;6.534;2023-01-16T06:09:56;14.07;;;4.47;;
53801;SDS011;39709;53.334;6.534;2023-01-16T06:12:21;15.83;;;4.90;;
53801;SDS011;39709;53.334;6.534;2023-01-16T06:14:47;17.47;;;4.60;;
53801;SDS011;39709;53.334;6.534;2023-01-16T06:17:13;15.57;;;4.20;;
53801;SDS011;39709;53.334;6.534;2023-01-16T06:19:43;12.38;;;4.80;;
53801;SDS011;39709;53.334;6.534;2023-01-16T06:22:10;14.98;;;6.00;;
53801;SDS011;39709;53.334;6.534;2023-01-16T06:24:36;13.67;;;4.67;;
53801;SDS011;39709;53.334;6.534;2023-01-16T06:27:02;13.18;;;5.13;;
53801;SDS011;39709;53.334;6.534;2023-01-16T06:29:27;16.43;;;5.57;;
53801;SDS011;39709;53.334;6.534;2023-01-16T06:31:53;18.05;;;5.85;;
53801;SDS011;39709;53.334;6.534;2023-01-16T06:34:19;17.03;;;5.47;;
53801;SDS011;39709;53.334;6.534;2023-01-16T06:36:44;16.23;;;5.75;;
53801;SDS011;39709;53.334;6.534;2023-01-16T06:39:12;15.40;;;5.72;;
53801;SDS011;39709;53.334;6.534;2023-01-16T06:41:38;17.10;;;5.77;;
53801;SDS011;39709;53.334;6.534;2023-01-16T06:44:04;19.02;;;6.07;;
53801;SDS011;39709;53.334;6.534;2023-01-16T06:46:30;15.70;;;5.43;;
53801;SDS011;39709;53.334;6.534;2023-01-16T06:48:55;13.32;;;5.30;;
53801;SDS011;39709;53.334;6.534;2023-01-16T06:51:21;18.53;;;5.83;;
53801;SDS011;39709;53.334;6.534;2023-01-16T06:53:47;15.35;;;6.03;;
53801;SDS011;39709;53.334;6.534;2023-01-16T06:56:12;20.83;;;7.03;;
53801;SDS011;39709;53.334;6.534;2023-01-16T06:58:38;23.30;;;6.97;;
53801;SDS011;39709;53.334;6.534;2023-01-16T07:01:04;16.80;;;7.07;;
53801;SDS011;39709;53.334;6.534;2023-01-16T07:03:30;19.17;;;7.18;;
53801;SDS011;39709;53.334;6.534;2023-01-16T07:05:56;18.67;;;6.70;;
53801;SDS011;39709;53.334;6.534;2023-01-16T07:08:22;21.35;;;8.00;;
53801;SDS011;39709;53.334;6.534;2023-01-16T07:10:47;18.60;;;7.20;;
53801;SDS011;39709;53.334;6.534;2023-01-16T07:13:13;23.67;;;7.93;;
53801;SDS011;39709;53.334;6.534;2023-01-16T07:15:40;19.77;;;8.00;;
53801;SDS011;39709;53.334;6.534;2023-01-16T07:18:29;26.23;;;9.13;;
53801;SDS011;39709;53.334;6.534;2023-01-16T07:21:14;21.27;;;8.70;;
53801;SDS011;39709;53.334;6.534;2023-01-16T07:24:00;24.20;;;8.52;;
53801;SDS011;39709;53.334;6.534;2023-01-16T07:26:29;29.73;;;14.18;;
53801;SDS011;39709;53.334;6.534;2023-01-16T07:28:56;29.58;;;16.20;;
53801;SDS011;39709;53.334;6.534;2023-01-16T07:31:23;22.00;;;9.17;;
53801;SDS011;39709;53.334;6.534;2023-01-16T07:33:50;19.98;;;7.75;;
53801;SDS011;39709;53.334;6.534;2023-01-16T07:36:16;19.27;;;7.28;;
53801;SDS011;39709;53.334;6.534;2023-01-16T07:38:41;20.13;;;8.00;;
53801;SDS011;39709;53.334;6.534;2023-01-16T07:41:07;23.73;;;9.00;;
53801;SDS011;39709;53.334;6.534;2023-01-16T07:43:33;20.95;;;7.75;;
53801;SDS011;39709;53.334;6.534;2023-01-16T07:45:59;19.63;;;7.27;;
53801;SDS011;39709;53.334;6.534;2023-01-16T07:48:25;18.33;;;6.53;;
53801;SDS011;39709;53.334;6.534;2023-01-16T07:50:55;19.58;;;6.40;;
53801;SDS011;39709;53.334;6.534;2023-01-16T07:53:23;17.08;;;6.22;;
53801;SDS011;39709;53.334;6.534;2023-01-16T07:55:52;20.10;;;6.73;;
53801;SDS011;39709;53.334;6.534;2023-01-16T07:58:23;20.50;;;6.53;;
53801;SDS011;39709;53.334;6.534;2023-01-16T08:00:49;17.17;;;6.32;;
53801;SDS011;39709;53.334;6.534;2023-01-16T08:03:17;17.38;;;5.90;;
53801;SDS011;39709;53.334;6.534;2023-01-16T08:05:44;18.02;;;6.22;;
53801;SDS011;39709;53.334;6.534;2023-01-16T08:08:10;19.53;;;6.50;;
53801;SDS011;39709;53.334;6.534;2023-01-16T08:10:36;15.60;;;5.63;;
53801;SDS011;39709;53.334;6.534;2023-01-16T08:13:02;18.70;;;6.75;;
53801;SDS011;39709;53.334;6.534;2023-01-16T08:15:28;10.50;;;3.47;;
53801;SDS011;39709;53.334;6.534;2023-01-16T08:17:54;12.30;;;4.30;;
53801;SDS011;39709;53.334;6.534;2023-01-16T08:20:20;14.20;;;5.45;;
53801;SDS011;39709;53.334;6.534;2023-01-16T08:22:48;17.73;;;6.17;;
53801;SDS011;39709;53.334;6.534;2023-01-16T08:25:20;15.73;;;5.68;;
53801;SDS011;39709;53.334;6.534;2023-01-16T08:27:47;19.08;;;6.80;;
53801;SDS011;39709;53.334;6.534;2023-01-16T08:30:13;17.83;;;6.57;;
53801;SDS011;39709;53.334;6.534;2023-01-16T08:32:40;23.05;;;6.30;;
53801;SDS011;39709;53.334;6.534;2023-01-16T08:35:06;16.90;;;6.00;;
53801;SDS011;39709;53.334;6.534;2023-01-16T08:37:32;17.15;;;7.45;;
53801;SDS011;39709;53.334;6.534;2023-01-16T08:39:58;18.58;;;7.82;;
53801;SDS011;39709;53.334;6.534;2023-01-16T08:42:24;17.77;;;6.33;;
53801;SDS011;39709;53.334;6.534;2023-01-16T08:45:10;12.88;;;4.65;;
53801;SDS011;39709;53.334;6.534;2023-01-16T08:47:55;8.90;;;2.30;;
53801;SDS011;39709;53.334;6.534;2023-01-16T08:50:40;15.70;;;6.28;;
53801;SDS011;39709;53.334;6.534;2023-01-16T08:53:26;14.30;;;4.33;;
53801;SDS011;39709;53.334;6.534;2023-01-16T08:55:51;7.65;;;2.30;;
53801;SDS011;39709;53.334;6.534;2023-01-16T08:58:17;8.80;;;3.47;;
53801;SDS011;39709;53.334;6.534;2023-01-16T09:00:46;4.85;;;1.30;;
53801;SDS011;39709;53.334;6.534;2023-01-16T09:03:12;7.97;;;2.72;;
53801;SDS011;39709;53.334;6.534;2023-01-16T09:05:40;7.53;;;1.92;;
53801;SDS011;39709;53.334;6.534;2023-01-16T09:08:06;15.70;;;5.23;;
53801;SDS011;39709;53.334;6.534;2023-01-16T09:10:31;11.32;;;3.80;;
53801;SDS011;39709;53.334;6.534;2023-01-16T09:12:57;10.77;;;4.00;;
53801;SDS011;39709;53.334;6.534;2023-01-16T09:15:41;7.35;;;2.58;;
53801;SDS011;39709;53.334;6.534;2023-01-16T09:18:07;18.30;;;5.10;;
53801;SDS011;39709;53.334;6.534;2023-01-16T09:20:33;7.70;;;2.72;;
53801;SDS011;39709;53.334;6.534;2023-01-16T09:22:59;5.07;;;1.47;;
53801;SDS011;39709;53.334;6.534;2023-01-16T09:25:26;4.40;;;1.10;;
53801;SDS011;39709;53.334;6.534;2023-01-16T09:27:53;2.70;;;0.80;;
53801;SDS011;39709;53.334;6.534;2023-01-16T09:30:18;10.53;;;3.23;;
53801;SDS011;39709;53.334;6.534;2023-01-16T09:32:44;2.35;;;0.52;;
53801;SDS011;39709;53.334;6.534;2023-01-16T09:35:11;9.38;;;2.25;;
53801;SDS011;39709;53.334;6.534;2023-01-16T09:37:37;11.67;;;3.00;;
53801;SDS011;39709;53.334;6.534;2023-01-16T09:40:03;1.70;;;0.30;;
53801;SDS011;39709;53.334;6.534;2023-01-16T09:42:42;4.32;;;1.45;;
53801;SDS011;39709;53.334;6.534;2023-01-16T09:45:41;2.88;;;0.40;;
53801;SDS011;39709;53.334;6.534;2023-01-16T09:48:12;2.60;;;0.40;;
53801;SDS011;39709;53.334;6.534;2023-01-16T09:50:49;1.85;;;0.28;;
53801;SDS011;39709;53.334;6.534;2023-01-16T09:56:24;1.95;;;0.40;;
53801;SDS011;39709;53.334;6.534;2023-01-16T10:01:46;1.30;;;0.20;;
53801;SDS011;39709;53.334;6.534;2023-01-16T10:04:19;2.05;;;0.30;;
53801;SDS011;39709;53.334;6.534;2023-01-16T10:06:54;2.67;;;0.30;;
53801;SDS011;39709;53.334;6.534;2023-01-16T10:12:31;1.17;;;0.30;;
53801;SDS011;39709;53.334;6.534;2023-01-16T10:23:28;0.95;;;0.13;;
53801;SDS011;39709;53.334;6.534;2023-01-16T10:26:15;2.08;;;0.47;;
53801;SDS011;39709;53.334;6.534;2023-01-16T10:28:59;2.90;;;0.70;;
53801;SDS011;39709;53.334;6.534;2023-01-16T10:31:48;1.58;;;0.30;;
53801;SDS011;39709;53.334;6.534;2023-01-16T10:34:23;3.47;;;1.02;;
53801;SDS011;39709;53.334;6.534;2023-01-16T10:36:53;1.58;;;0.28;;
53801;SDS011;39709;53.334;6.534;2023-01-16T10:39:31;3.05;;;0.77;;
53801;SDS011;39709;53.334;6.534;2023-01-16T10:45:17;0.52;;;0.15;;
53801;SDS011;39709;53.334;6.534;2023-01-16T10:48:08;1.73;;;0.30;;
53801;SDS011;39709;53.334;6.534;2023-01-16T10:50:55;0.90;;;0.20;;
53801;SDS011;39709;53.334;6.534;2023-01-16T10:53:22;3.85;;;0.40;;
53801;SDS011;39709;53.334;6.534;2023-01-16T10:55:48;4.47;;;0.80;;
53801;SDS011;39709;53.334;6.534;2023-01-16T11:00:54;2.42;;;0.50;;
53801;SDS011;39709;53.334;6.534;2023-01-16T11:03:37;4.38;;;0.63;;
53801;SDS011;39709;53.334;6.534;2023-01-16T11:08:44;1.20;;;0.30;;
53801;SDS011;39709;53.334;6.534;2023-01-16T11:11:15;1.83;;;0.30;;
53801;SDS011;39709;53.334;6.534;2023-01-16T11:14:00;2.80;;;0.60;;
53801;SDS011;39709;53.334;6.534;2023-01-16T11:17:10;2.03;;;0.30;;
53801;SDS011;39709;53.334;6.534;2023-01-16T11:20:07;2.90;;;0.60;;
53801;SDS011;39709;53.334;6.534;2023-01-16T11:22:38;3.13;;;0.77;;
53801;SDS011;39709;53.334;6.534;2023-01-16T11:25:05;3.35;;;0.80;;
53801;SDS011;39709;53.334;6.534;2023-01-16T11:27:31;2.45;;;0.40;;
53801;SDS011;39709;53.334;6.534;2023-01-16T11:30:03;2.75;;;0.80;;
53801;SDS011;39709;53.334;6.534;2023-01-16T11:32:34;4.17;;;0.80;;
53801;SDS011;39709;53.334;6.534;2023-01-16T11:35:03;1.20;;;0.20;;
53801;SDS011;39709;53.334;6.534;2023-01-16T11:37:36;4.03;;;0.60;;
53801;SDS011;39709;53.334;6.534;2023-01-16T11:40:03;2.53;;;0.43;;
53801;SDS011;39709;53.334;6.534;2023-01-16T11:42:30;1.08;;;0.20;;
53801;SDS011;39709;53.334;6.534;2023-01-16T11:45:30;2.70;;;0.53;;
53801;SDS011;39709;53.334;6.534;2023-01-16T11:48:14;1.42;;;0.30;;
53801;SDS011;39709;53.334;6.534;2023-01-16T11:50:49;2.47;;;0.32;;
53801;SDS011;39709;53.334;6.534;2023-01-16T11:53:16;1.35;;;0.30;;
53801;SDS011;39709;53.334;6.534;2023-01-16T11:55:49;1.95;;;0.40;;
53801;SDS011;39709;53.334;6.534;2023-01-16T12:04:37;1.67;;;0.30;;
53801;SDS011;39709;53.334;6.534;2023-01-16T12:07:33;1.15;;;0.22;;
53801;SDS011;39709;53.334;6.534;2023-01-16T12:10:41;1.60;;;0.30;;
53801;SDS011;39709;53.334;6.534;2023-01-16T12:13:16;1.10;;;0.23;;
53801;SDS011;39709;53.334;6.534;2023-01-16T12:22:32;1.88;;;0.40;;
53801;SDS011;39709;53.334;6.534;2023-01-16T12:34:09;3.55;;;0.30;;
53801;SDS011;39709;53.334;6.534;2023-01-16T12:45:13;2.80;;;0.63;;
53801;SDS011;39709;53.334;6.534;2023-01-16T12:48:06;3.70;;;1.08;;
53801;SDS011;39709;53.334;6.534;2023-01-16T12:56:00;4.33;;;0.70;;
53801;SDS011;39709;53.334;6.534;2023-01-16T12:58:47;1.08;;;0.20;;
53801;SDS011;39709;53.334;6.534;2023-01-16T13:01:17;1.92;;;0.32;;
53801;SDS011;39709;53.334;6.534;2023-01-16T13:06:21;4.32;;;1.08;;
53801;SDS011;39709;53.334;6.534;2023-01-16T13:08:55;1.75;;;0.32;;
53801;SDS011;39709;53.334;6.534;2023-01-16T13:11:31;3.58;;;0.68;;
53801;SDS011;39709;53.334;6.534;2023-01-16T13:14:20;2.78;;;0.70;;
53801;SDS011;39709;53.334;6.534;2023-01-16T13:16:54;3.03;;;0.57;;
53801;SDS011;39709;53.334;6.534;2023-01-16T13:19:27;4.88;;;0.80;;
53801;SDS011;39709;53.334;6.534;2023-01-16T13:24:31;2.35;;;0.32;;
53801;SDS011;39709;53.334;6.534;2023-01-16T13:27:15;4.00;;;1.15;;
53801;SDS011;39709;53.334;6.534;2023-01-16T13:29:47;2.13;;;0.30;;
53801;SDS011;39709;53.334;6.534;2023-01-16T13:35:15;3.88;;;0.90;;
53801;SDS011;39709;53.334;6.534;2023-01-16T13:43:45;3.93;;;1.10;;
53801;SDS011;39709;53.334;6.534;2023-01-16T13:46:34;6.57;;;1.80;;
53801;SDS011;39709;53.334;6.534;2023-01-16T13:49:02;5.47;;;1.40;;
53801;SDS011;39709;53.334;6.534;2023-01-16T13:51:30;7.63;;;2.10;;
53801;SDS011;39709;53.334;6.534;2023-01-16T13:54:12;6.05;;;1.90;;
53801;SDS011;39709;53.334;6.534;2023-01-16T13:56:43;5.10;;;1.70;;
53801;SDS011;39709;53.334;6.534;2023-01-16T13:59:27;7.93;;;2.08;;
53801;SDS011;39709;53.334;6.534;2023-01-16T14:02:01;3.13;;;0.80;;
53801;SDS011;39709;53.334;6.534;2023-01-16T14:04:42;8.98;;;2.80;;
53801;SDS011;39709;53.334;6.534;2023-01-16T14:08:05;7.60;;;3.28;;
53801;SDS011;39709;53.334;6.534;2023-01-16T14:13:40;9.30;;;3.20;;
53801;SDS011;39709;53.334;6.534;2023-01-16T14:16:29;7.00;;;3.45;;
53801;SDS011;39709;53.334;6.534;2023-01-16T14:18:59;7.88;;;3.03;;
53801;SDS011;39709;53.334;6.534;2023-01-16T14:24:02;8.97;;;3.00;;
53801;SDS011;39709;53.334;6.534;2023-01-16T14:31:39;8.03;;;4.67;;
53801;SDS011;39709;53.334;6.534;2023-01-16T14:34:17;6.57;;;2.72;;
53801;SDS011;39709;53.334;6.534;2023-01-16T14:36:51;7.15;;;2.85;;
53801;SDS011;39709;53.334;6.534;2023-01-16T14:39:30;8.20;;;3.33;;
53801;SDS011;39709;53.334;6.534;2023-01-16T14:42:48;7.90;;;2.80;;
53801;SDS011;39709;53.334;6.534;2023-01-16T14:51:10;9.07;;;2.63;;
53801;SDS011;39709;53.334;6.534;2023-01-16T14:57:11;8.38;;;2.92;;
53801;SDS011;39709;53.334;6.534;2023-01-16T14:59:52;6.40;;;2.70;;
53801;SDS011;39709;53.334;6.534;2023-01-16T15:02:25;7.28;;;2.90;;
53801;SDS011;39709;53.334;6.534;2023-01-16T15:10:16;7.18;;;2.65;;
53801;SDS011;39709;53.334;6.534;2023-01-16T15:12:52;7.70;;;2.57;;
53801;SDS011;39709;53.334;6.534;2023-01-16T15:15:36;6.80;;;2.35;;
53801;SDS011;39709;53.334;6.534;2023-01-16T15:18:02;9.85;;;2.28;;
53801;SDS011;39709;53.334;6.534;2023-01-16T15:20:46;10.00;;;2.80;;
53801;SDS011;39709;53.334;6.534;2023-01-16T15:23:32;7.50;;;2.60;;
53801;SDS011;39709;53.334;6.534;2023-01-16T15:33:32;6.17;;;2.63;;
53801;SDS011;39709;53.334;6.534;2023-01-16T15:39:02;8.48;;;3.28;;
53801;SDS011;39709;53.334;6.534;2023-01-16T15:41:37;10.25;;;2.78;;
53801;SDS011;39709;53.334;6.534;2023-01-16T15:44:23;9.23;;;2.90;;
53801;SDS011;39709;53.334;6.534;2023-01-16T15:50:00;6.65;;;2.90;;
53801;SDS011;39709;53.334;6.534;2023-01-16T15:52:46;7.93;;;3.08;;
53801;SDS011;39709;53.334;6.534;2023-01-16T15:55:19;8.82;;;2.53;;
53801;SDS011;39709;53.334;6.534;2023-01-16T15:57:52;7.07;;;2.30;;
53801;SDS011;39709;53.334;6.534;2023-01-16T16:00:30;6.75;;;3.20;;
53801;SDS011;39709;53.334;6.534;2023-01-16T16:05:36;4.53;;;1.52;;
53801;SDS011;39709;53.334;6.534;2023-01-16T16:08:03;7.80;;;2.35;;
53801;SDS011;39709;53.334;6.534;2023-01-16T16:10:33;10.37;;;4.27;;
53801;SDS011;39709;53.334;6.534;2023-01-16T16:13:20;9.52;;;4.57;;
53801;SDS011;39709;53.334;6.534;2023-01-16T16:15:56;8.23;;;3.70;;
53801;SDS011;39709;53.334;6.534;2023-01-16T16:18:57;8.00;;;2.95;;
53801;SDS011;39709;53.334;6.534;2023-01-16T16:21:25;13.15;;;6.63;;
53801;SDS011;39709;53.334;6.534;2023-01-16T16:23:57;8.43;;;3.30;;
53801;SDS011;39709;53.334;6.534;2023-01-16T16:26:25;8.98;;;2.50;;
53801;SDS011;39709;53.334;6.534;2023-01-16T16:28:51;6.07;;;2.40;;
53801;SDS011;39709;53.334;6.534;2023-01-16T16:31:32;7.68;;;3.25;;
53801;SDS011;39709;53.334;6.534;2023-01-16T16:34:05;9.95;;;3.80;;
53801;SDS011;39709;53.334;6.534;2023-01-16T16:36:46;11.17;;;4.27;;
53801;SDS011;39709;53.334;6.534;2023-01-16T16:47:33;9.38;;;3.00;;
53801;SDS011;39709;53.334;6.534;2023-01-16T16:50:02;6.83;;;2.20;;
53801;SDS011;39709;53.334;6.534;2023-01-16T16:55:54;9.07;;;3.20;;
53801;SDS011;39709;53.334;6.534;2023-01-16T16:58:32;9.48;;;3.25;;
53801;SDS011;39709;53.334;6.534;2023-01-16T17:01:05;7.35;;;3.20;;
53801;SDS011;39709;53.334;6.534;2023-01-16T17:03:31;2.17;;;0.70;;
53801;SDS011;39709;53.334;6.534;2023-01-16T17:05:57;7.85;;;3.55;;
53801;SDS011;39709;53.334;6.534;2023-01-16T17:08:26;8.90;;;3.10;;
53801;SDS011;39709;53.334;6.534;2023-01-16T17:10:55;7.27;;;3.00;;
53801;SDS011;39709;53.334;6.534;2023-01-16T17:13:22;10.38;;;3.58;;
53801;SDS011;39709;53.334;6.534;2023-01-16T17:15:56;8.23;;;3.90;;
53801;SDS011;39709;53.334;6.534;2023-01-16T17:18:24;8.93;;;4.50;;
53801;SDS011;39709;53.334;6.534;2023-01-16T17:20:51;7.55;;;3.42;;
53801;SDS011;39709;53.334;6.534;2023-01-16T17:23:18;10.83;;;4.63;;
53801;SDS011;39709;53.334;6.534;2023-01-16T17:25:44;8.43;;;4.13;;
53801;SDS011;39709;53.334;6.534;2023-01-16T17:28:11;7.57;;;3.88;;
53801;SDS011;39709;53.334;6.534;2023-01-16T17:30:38;8.40;;;4.15;;
53801;SDS011;39709;53.334;6.534;2023-01-16T17:33:06;10.63;;;5.82;;
53801;SDS011;39709;53.334;6.534;2023-01-16T17:35:41;10.90;;;4.60;;
53801;SDS011;39709;53.334;6.534;2023-01-16T17:40:38;13.20;;;6.07;;
53801;SDS011;39709;53.334;6.534;2023-01-16T17:43:04;14.80;;;5.93;;
53801;SDS011;39709;53.334;6.534;2023-01-16T17:45:49;11.38;;;5.80;;
53801;SDS011;39709;53.334;6.534;2023-01-16T17:48:17;11.98;;;6.28;;
53801;SDS011;39709;53.334;6.534;2023-01-16T17:50:43;11.38;;;5.50;;
53801;SDS011;39709;53.334;6.534;2023-01-16T17:53:10;11.15;;;4.75;;
53801;SDS011;39709;53.334;6.534;2023-01-16T17:55:38;10.37;;;4.87;;
53801;SDS011;39709;53.334;6.534;2023-01-16T17:58:20;10.43;;;4.65;;
53801;SDS011;39709;53.334;6.534;2023-01-16T18:01:00;10.75;;;4.90;;
53801;SDS011;39709;53.334;6.534;2023-01-16T18:03:29;12.95;;;5.28;;
53801;SDS011;39709;53.334;6.534;2023-01-16T18:06:02;12.05;;;5.93;;
53801;SDS011;39709;53.334;6.534;2023-01-16T18:08:30;12.40;;;5.67;;
53801;SDS011;39709;53.334;6.534;2023-01-16T18:11:00;11.00;;;4.65;;